Mazarn, Arkansas
Current Conditions -  °F | °C
As of 7:34 AM on Tuesday 21 Oct 2014 (Local Time) from KHOT Reporting Station
Light Rain Light Rain  
Wind Chill: 13°   Ceiling: 200
Heat Index: 13°   Visibility: 0.25mi
Dew Point: 12°   Wind: 0mph
Humidity: 96%   Direction: NA
Pressure: 30.1"   Gusts: NA
Location:  34.3467°N, 93.3187°W
Report Text: KHOT 211234Z AUTO 00000KT 1/4SM -RA FG VV002 13/12 A3010 RMK AO2 RAB02 P0000 T01280122
Loading
Personal Weather Stations






























Interactive Weather Map
Tropical Storm Tracking
New forecast layout! Learn more

10-Day Weather Forecast

Advertisements
Track Severe Weather on mobile